sensor_id;sensor_type;location;lat;lon;timestamp;temperature;humidity
909;DHT22;441;51.192;6.788;2023-12-20T00:00:44;20.90;54.20
909;DHT22;441;51.192;6.788;2023-12-20T00:03:11;20.90;54.10
909;DHT22;441;51.192;6.788;2023-12-20T00:05:39;20.90;54.10
909;DHT22;441;51.192;6.788;2023-12-20T00:08:06;20.90;54.10
909;DHT22;441;51.192;6.788;2023-12-20T00:10:33;20.90;54.20
909;DHT22;441;51.192;6.788;2023-12-20T00:13:00;20.80;54.10
909;DHT22;441;51.192;6.788;2023-12-20T00:15:27;20.90;54.10
909;DHT22;441;51.192;6.788;2023-12-20T00:17:54;20.90;54.20
909;DHT22;441;51.192;6.788;2023-12-20T00:20:21;20.90;54.20
909;DHT22;441;51.192;6.788;2023-12-20T00:22:49;20.80;54.10
909;DHT22;441;51.192;6.788;2023-12-20T00:25:16;20.80;54.10
909;DHT22;441;51.192;6.788;2023-12-20T00:27:43;20.80;54.20
909;DHT22;441;51.192;6.788;2023-12-20T00:30:11;20.80;54.20
909;DHT22;441;51.192;6.788;2023-12-20T00:32:38;20.80;54.20
909;DHT22;441;51.192;6.788;2023-12-20T00:35:05;20.80;54.20
909;DHT22;441;51.192;6.788;2023-12-20T00:37:32;20.70;54.10
909;DHT22;441;51.192;6.788;2023-12-20T00:40:00;20.70;54.20
909;DHT22;441;51.192;6.788;2023-12-20T00:42:27;20.70;54.20
909;DHT22;441;51.192;6.788;2023-12-20T00:44:54;20.70;54.20
909;DHT22;441;51.192;6.788;2023-12-20T00:47:21;20.70;54.20
909;DHT22;441;51.192;6.788;2023-12-20T00:49:48;20.70;54.20
909;DHT22;441;51.192;6.788;2023-12-20T00:52:15;20.70;54.20
909;DHT22;441;51.192;6.788;2023-12-20T00:54:42;20.70;54.20
909;DHT22;441;51.192;6.788;2023-12-20T00:57:11;20.60;54.20
909;DHT22;441;51.192;6.788;2023-12-20T00:59:38;20.60;54.20
909;DHT22;441;51.192;6.788;2023-12-20T01:02:04;20.60;54.20
909;DHT22;441;51.192;6.788;2023-12-20T01:04:31;20.60;54.20
909;DHT22;441;51.192;6.788;2023-12-20T01:06:58;20.60;54.20
909;DHT22;441;51.192;6.788;2023-12-20T01:09:25;20.60;54.20
909;DHT22;441;51.192;6.788;2023-12-20T01:11:53;20.60;54.20
909;DHT22;441;51.192;6.788;2023-12-20T01:14:21;20.60;54.20
909;DHT22;441;51.192;6.788;2023-12-20T01:16:47;20.60;54.10
909;DHT22;441;51.192;6.788;2023-12-20T01:19:14;20.60;54.20
909;DHT22;441;51.192;6.788;2023-12-20T01:21:41;20.50;54.10
909;DHT22;441;51.192;6.788;2023-12-20T01:24:08;20.60;54.10
909;DHT22;441;51.192;6.788;2023-12-20T01:26:35;20.50;54.10
909;DHT22;441;51.192;6.788;2023-12-20T01:29:02;20.50;54.10
909;DHT22;441;51.192;6.788;2023-12-20T01:31:30;20.50;54.10
909;DHT22;441;51.192;6.788;2023-12-20T01:33:57;20.50;54.00
909;DHT22;441;51.192;6.788;2023-12-20T01:36:24;20.50;54.00
909;DHT22;441;51.192;6.788;2023-12-20T01:38:51;20.50;54.00
909;DHT22;441;51.192;6.788;2023-12-20T01:41:18;20.50;54.00
909;DHT22;441;51.192;6.788;2023-12-20T01:43:45;20.50;54.00
909;DHT22;441;51.192;6.788;2023-12-20T01:46:12;20.50;54.00
909;DHT22;441;51.192;6.788;2023-12-20T01:48:40;20.40;54.00
909;DHT22;441;51.192;6.788;2023-12-20T01:51:08;20.40;54.00
909;DHT22;441;51.192;6.788;2023-12-20T01:53:35;20.40;54.00
909;DHT22;441;51.192;6.788;2023-12-20T01:56:02;20.40;54.00
909;DHT22;441;51.192;6.788;2023-12-20T01:58:29;20.40;54.00
909;DHT22;441;51.192;6.788;2023-12-20T02:00:57;20.40;54.00
909;DHT22;441;51.192;6.788;2023-12-20T02:03:24;20.40;53.90
909;DHT22;441;51.192;6.788;2023-12-20T02:05:53;20.40;53.90
909;DHT22;441;51.192;6.788;2023-12-20T02:08:20;20.30;53.80
909;DHT22;441;51.192;6.788;2023-12-20T02:10:47;20.30;53.80
909;DHT22;441;51.192;6.788;2023-12-20T02:13:14;20.30;53.80
909;DHT22;441;51.192;6.788;2023-12-20T02:15:41;20.30;53.80
909;DHT22;441;51.192;6.788;2023-12-20T02:18:09;20.30;53.80
909;DHT22;441;51.192;6.788;2023-12-20T02:20:36;20.30;53.80
909;DHT22;441;51.192;6.788;2023-12-20T02:23:04;20.30;53.90
909;DHT22;441;51.192;6.788;2023-12-20T02:25:31;20.30;53.80
909;DHT22;441;51.192;6.788;2023-12-20T02:27:58;20.30;53.80
909;DHT22;441;51.192;6.788;2023-12-20T02:30:25;20.30;53.80
909;DHT22;441;51.192;6.788;2023-12-20T02:32:52;20.30;53.90
909;DHT22;441;51.192;6.788;2023-12-20T02:35:20;20.30;53.90
909;DHT22;441;51.192;6.788;2023-12-20T02:37:47;20.30;53.90
909;DHT22;441;51.192;6.788;2023-12-20T02:40:15;20.20;53.80
909;DHT22;441;51.192;6.788;2023-12-20T02:42:42;20.20;53.80
909;DHT22;441;51.192;6.788;2023-12-20T02:45:09;20.20;53.90
909;DHT22;441;51.192;6.788;2023-12-20T02:47:36;20.20;53.90
909;DHT22;441;51.192;6.788;2023-12-20T02:50:03;20.20;53.90
909;DHT22;441;51.192;6.788;2023-12-20T02:52:29;20.20;53.90
909;DHT22;441;51.192;6.788;2023-12-20T02:54:56;20.20;53.90
909;DHT22;441;51.192;6.788;2023-12-20T02:57:24;20.10;53.80
909;DHT22;441;51.192;6.788;2023-12-20T02:59:51;20.10;53.80
909;DHT22;441;51.192;6.788;2023-12-20T03:02:18;20.10;53.80
909;DHT22;441;51.192;6.788;2023-12-20T03:04:45;20.10;53.80
909;DHT22;441;51.192;6.788;2023-12-20T03:07:12;20.10;53.80
909;DHT22;441;51.192;6.788;2023-12-20T03:09:38;20.10;53.90
909;DHT22;441;51.192;6.788;2023-12-20T03:12:05;20.10;53.80
909;DHT22;441;51.192;6.788;2023-12-20T03:14:34;20.10;53.80
909;DHT22;441;51.192;6.788;2023-12-20T03:17:01;20.10;53.80
909;DHT22;441;51.192;6.788;2023-12-20T03:19:27;20.10;53.80
909;DHT22;441;51.192;6.788;2023-12-20T03:21:54;20.10;53.80
909;DHT22;441;51.192;6.788;2023-12-20T03:24:21;20.10;53.80
909;DHT22;441;51.192;6.788;2023-12-20T03:26:48;20.10;53.80
909;DHT22;441;51.192;6.788;2023-12-20T03:29:15;20.10;53.80
909;DHT22;441;51.192;6.788;2023-12-20T03:31:43;20.00;53.80
909;DHT22;441;51.192;6.788;2023-12-20T03:34:11;20.00;53.70
909;DHT22;441;51.192;6.788;2023-12-20T03:36:38;20.10;53.80
909;DHT22;441;51.192;6.788;2023-12-20T03:39:05;20.00;53.70
909;DHT22;441;51.192;6.788;2023-12-20T03:41:32;20.00;53.70
909;DHT22;441;51.192;6.788;2023-12-20T03:43:58;20.00;53.70
909;DHT22;441;51.192;6.788;2023-12-20T03:46:25;20.00;53.70
909;DHT22;441;51.192;6.788;2023-12-20T03:48:53;20.00;53.70
909;DHT22;441;51.192;6.788;2023-12-20T03:51:21;20.00;53.70
909;DHT22;441;51.192;6.788;2023-12-20T03:53:48;20.00;53.70
909;DHT22;441;51.192;6.788;2023-12-20T03:56:14;20.00;53.70
909;DHT22;441;51.192;6.788;2023-12-20T03:58:41;19.90;53.60
909;DHT22;441;51.192;6.788;2023-12-20T04:01:09;19.90;53.60
909;DHT22;441;51.192;6.788;2023-12-20T04:03:37;19.90;53.60
909;DHT22;441;51.192;6.788;2023-12-20T04:06:06;19.90;53.60
909;DHT22;441;51.192;6.788;2023-12-20T04:08:33;19.90;53.60
909;DHT22;441;51.192;6.788;2023-12-20T04:11:00;19.90;53.60
909;DHT22;441;51.192;6.788;2023-12-20T04:13:27;19.90;53.60
909;DHT22;441;51.192;6.788;2023-12-20T04:15:53;19.90;53.60
909;DHT22;441;51.192;6.788;2023-12-20T04:18:20;19.90;53.60
909;DHT22;441;51.192;6.788;2023-12-20T04:20:47;19.90;53.60
909;DHT22;441;51.192;6.788;2023-12-20T04:23:16;19.90;53.50
909;DHT22;441;51.192;6.788;2023-12-20T04:25:43;19.90;53.50
909;DHT22;441;51.192;6.788;2023-12-20T04:28:10;19.90;53.50
909;DHT22;441;51.192;6.788;2023-12-20T04:30:37;19.90;53.50
909;DHT22;441;51.192;6.788;2023-12-20T04:33:04;19.90;53.50
909;DHT22;441;51.192;6.788;2023-12-20T04:35:31;19.80;53.40
909;DHT22;441;51.192;6.788;2023-12-20T04:37:57;19.80;53.40
909;DHT22;441;51.192;6.788;2023-12-20T04:40:26;19.80;53.40
909;DHT22;441;51.192;6.788;2023-12-20T04:42:53;19.80;53.40
909;DHT22;441;51.192;6.788;2023-12-20T04:45:19;19.80;53.40
909;DHT22;441;51.192;6.788;2023-12-20T04:47:46;19.80;53.40
909;DHT22;441;51.192;6.788;2023-12-20T04:50:13;19.80;53.40
909;DHT22;441;51.192;6.788;2023-12-20T04:52:40;19.80;53.40
909;DHT22;441;51.192;6.788;2023-12-20T04:55:08;19.80;53.40
909;DHT22;441;51.192;6.788;2023-12-20T04:57:36;19.80;53.40
909;DHT22;441;51.192;6.788;2023-12-20T05:00:04;19.80;53.40
909;DHT22;441;51.192;6.788;2023-12-20T05:02:34;19.70;53.30
909;DHT22;441;51.192;6.788;2023-12-20T05:05:01;19.70;53.30
909;DHT22;441;51.192;6.788;2023-12-20T05:07:27;19.80;53.50
909;DHT22;441;51.192;6.788;2023-12-20T05:09:54;19.70;53.40
909;DHT22;441;51.192;6.788;2023-12-20T05:12:21;19.70;53.40
909;DHT22;441;51.192;6.788;2023-12-20T05:14:50;19.70;53.40
909;DHT22;441;51.192;6.788;2023-12-20T05:17:17;19.80;53.50
909;DHT22;441;51.192;6.788;2023-12-20T05:19:46;19.80;53.60
909;DHT22;441;51.192;6.788;2023-12-20T05:22:13;19.70;53.50
909;DHT22;441;51.192;6.788;2023-12-20T05:24:40;19.70;53.50
909;DHT22;441;51.192;6.788;2023-12-20T05:27:06;19.70;53.60
909;DHT22;441;51.192;6.788;2023-12-20T05:29:33;19.70;53.70
909;DHT22;441;51.192;6.788;2023-12-20T05:32:01;19.70;53.80
909;DHT22;441;51.192;6.788;2023-12-20T05:34:30;19.70;53.90
909;DHT22;441;51.192;6.788;2023-12-20T05:36:58;19.80;54.10
909;DHT22;441;51.192;6.788;2023-12-20T05:39:25;19.70;54.00
909;DHT22;441;51.192;6.788;2023-12-20T05:41:51;19.70;54.00
909;DHT22;441;51.192;6.788;2023-12-20T05:44:18;19.70;54.10
909;DHT22;441;51.192;6.788;2023-12-20T05:46:45;19.70;54.10
909;DHT22;441;51.192;6.788;2023-12-20T05:49:13;19.70;54.10
909;DHT22;441;51.192;6.788;2023-12-20T05:51:40;19.70;54.20
909;DHT22;441;51.192;6.788;2023-12-20T05:54:09;19.70;54.30
909;DHT22;441;51.192;6.788;2023-12-20T05:56:36;19.70;54.30
909;DHT22;441;51.192;6.788;2023-12-20T05:59:03;19.70;54.40
909;DHT22;441;51.192;6.788;2023-12-20T06:01:30;19.70;54.40
909;DHT22;441;51.192;6.788;2023-12-20T06:03:57;19.60;54.30
909;DHT22;441;51.192;6.788;2023-12-20T06:06:25;19.70;54.50
909;DHT22;441;51.192;6.788;2023-12-20T06:08:52;19.60;54.40
909;DHT22;441;51.192;6.788;2023-12-20T06:11:19;19.60;54.50
909;DHT22;441;51.192;6.788;2023-12-20T06:13:45;19.60;54.50
909;DHT22;441;51.192;6.788;2023-12-20T06:16:12;19.60;54.50
909;DHT22;441;51.192;6.788;2023-12-20T06:18:40;19.60;54.60
909;DHT22;441;51.192;6.788;2023-12-20T06:21:07;19.60;54.60
909;DHT22;441;51.192;6.788;2023-12-20T06:23:35;19.60;54.60
909;DHT22;441;51.192;6.788;2023-12-20T06:26:02;19.60;54.60
909;DHT22;441;51.192;6.788;2023-12-20T06:28:29;19.60;54.60
909;DHT22;441;51.192;6.788;2023-12-20T06:30:56;19.60;54.70
909;DHT22;441;51.192;6.788;2023-12-20T06:33:23;19.60;54.80
909;DHT22;441;51.192;6.788;2023-12-20T06:35:50;19.60;54.80
909;DHT22;441;51.192;6.788;2023-12-20T06:38:18;19.60;54.80
909;DHT22;441;51.192;6.788;2023-12-20T06:40:47;19.60;54.80
909;DHT22;441;51.192;6.788;2023-12-20T06:43:14;19.60;54.90
909;DHT22;441;51.192;6.788;2023-12-20T06:45:41;19.60;54.90
909;DHT22;441;51.192;6.788;2023-12-20T06:48:08;19.50;54.80
909;DHT22;441;51.192;6.788;2023-12-20T06:50:36;19.50;54.80
909;DHT22;441;51.192;6.788;2023-12-20T06:53:05;19.50;54.80
909;DHT22;441;51.192;6.788;2023-12-20T06:55:32;19.50;54.80
909;DHT22;441;51.192;6.788;2023-12-20T06:58:01;19.50;54.90
909;DHT22;441;51.192;6.788;2023-12-20T07:00:28;19.50;54.90
909;DHT22;441;51.192;6.788;2023-12-20T07:02:55;19.50;55.00
909;DHT22;441;51.192;6.788;2023-12-20T07:05:22;19.50;55.10
909;DHT22;441;51.192;6.788;2023-12-20T07:07:49;19.50;55.20
909;DHT22;441;51.192;6.788;2023-12-20T07:10:16;19.50;55.70
909;DHT22;441;51.192;6.788;2023-12-20T07:12:43;19.60;55.80
909;DHT22;441;51.192;6.788;2023-12-20T07:15:11;19.70;56.20
909;DHT22;441;51.192;6.788;2023-12-20T07:17:38;19.80;56.30
909;DHT22;441;51.192;6.788;2023-12-20T07:20:06;19.80;56.50
909;DHT22;441;51.192;6.788;2023-12-20T07:22:36;19.90;57.40
909;DHT22;441;51.192;6.788;2023-12-20T07:25:04;20.00;57.60
909;DHT22;441;51.192;6.788;2023-12-20T07:27:31;20.10;57.80
909;DHT22;441;51.192;6.788;2023-12-20T07:29:58;20.10;57.20
909;DHT22;441;51.192;6.788;2023-12-20T07:32:26;20.20;56.80
909;DHT22;441;51.192;6.788;2023-12-20T07:34:53;20.20;56.60
909;DHT22;441;51.192;6.788;2023-12-20T07:37:20;20.20;57.40
909;DHT22;441;51.192;6.788;2023-12-20T07:39:47;20.20;56.60
909;DHT22;441;51.192;6.788;2023-12-20T07:42:14;20.20;56.40
909;DHT22;441;51.192;6.788;2023-12-20T07:44:41;20.30;56.40
909;DHT22;441;51.192;6.788;2023-12-20T07:47:08;20.20;56.20
909;DHT22;441;51.192;6.788;2023-12-20T07:49:36;20.30;56.20
909;DHT22;441;51.192;6.788;2023-12-20T07:52:03;20.30;55.90
909;DHT22;441;51.192;6.788;2023-12-20T07:54:30;20.40;56.10
909;DHT22;441;51.192;6.788;2023-12-20T07:56:57;20.40;55.70
909;DHT22;441;51.192;6.788;2023-12-20T07:59:24;20.40;55.60
909;DHT22;441;51.192;6.788;2023-12-20T08:01:51;20.50;55.80
909;DHT22;441;51.192;6.788;2023-12-20T08:04:18;20.50;55.70
909;DHT22;441;51.192;6.788;2023-12-20T08:06:46;20.60;55.50
909;DHT22;441;51.192;6.788;2023-12-20T08:09:13;20.60;54.90
909;DHT22;441;51.192;6.788;2023-12-20T08:11:41;20.60;54.90
909;DHT22;441;51.192;6.788;2023-12-20T08:14:11;20.70;54.90
909;DHT22;441;51.192;6.788;2023-12-20T08:16:38;20.70;55.30
909;DHT22;441;51.192;6.788;2023-12-20T08:19:05;20.70;55.50
909;DHT22;441;51.192;6.788;2023-12-20T08:21:32;20.80;55.50
909;DHT22;441;51.192;6.788;2023-12-20T08:24:00;20.80;55.60
909;DHT22;441;51.192;6.788;2023-12-20T08:26:27;20.80;54.80
909;DHT22;441;51.192;6.788;2023-12-20T08:28:54;20.80;54.40
909;DHT22;441;51.192;6.788;2023-12-20T08:31:21;20.90;54.40
909;DHT22;441;51.192;6.788;2023-12-20T08:33:48;20.90;54.30
909;DHT22;441;51.192;6.788;2023-12-20T08:36:16;20.90;54.10
909;DHT22;441;51.192;6.788;2023-12-20T08:38:44;21.00;54.80
909;DHT22;441;51.192;6.788;2023-12-20T08:41:12;21.00;54.00
909;DHT22;441;51.192;6.788;2023-12-20T08:43:41;21.00;54.30
909;DHT22;441;51.192;6.788;2023-12-20T08:46:08;21.10;54.20
909;DHT22;441;51.192;6.788;2023-12-20T08:48:38;21.10;54.10
909;DHT22;441;51.192;6.788;2023-12-20T08:51:05;21.10;54.30
909;DHT22;441;51.192;6.788;2023-12-20T08:53:34;21.20;53.00
909;DHT22;441;51.192;6.788;2023-12-20T08:56:01;21.20;53.20
909;DHT22;441;51.192;6.788;2023-12-20T08:58:29;21.30;53.20
909;DHT22;441;51.192;6.788;2023-12-20T09:00:56;21.30;53.10
909;DHT22;441;51.192;6.788;2023-12-20T09:03:23;21.30;53.30
909;DHT22;441;51.192;6.788;2023-12-20T09:05:50;21.30;53.40
909;DHT22;441;51.192;6.788;2023-12-20T09:08:17;21.30;53.40
909;DHT22;441;51.192;6.788;2023-12-20T09:10:44;21.30;53.60
909;DHT22;441;51.192;6.788;2023-12-20T09:13:11;21.30;53.70
909;DHT22;441;51.192;6.788;2023-12-20T09:15:40;21.30;53.60
909;DHT22;441;51.192;6.788;2023-12-20T09:18:07;21.40;53.50
909;DHT22;441;51.192;6.788;2023-12-20T09:20:34;21.40;53.40
909;DHT22;441;51.192;6.788;2023-12-20T09:23:01;21.40;53.50
909;DHT22;441;51.192;6.788;2023-12-20T09:25:28;21.40;53.20
909;DHT22;441;51.192;6.788;2023-12-20T09:27:55;21.40;53.40
909;DHT22;441;51.192;6.788;2023-12-20T09:30:22;21.40;53.10
909;DHT22;441;51.192;6.788;2023-12-20T09:32:51;21.40;53.00
909;DHT22;441;51.192;6.788;2023-12-20T09:35:18;21.50;52.90
909;DHT22;441;51.192;6.788;2023-12-20T09:37:44;21.50;52.70
909;DHT22;441;51.192;6.788;2023-12-20T09:40:13;21.50;52.50
909;DHT22;441;51.192;6.788;2023-12-20T09:42:47;21.50;52.60
909;DHT22;441;51.192;6.788;2023-12-20T09:45:16;21.50;52.80
909;DHT22;441;51.192;6.788;2023-12-20T09:47:46;21.60;53.10
909;DHT22;441;51.192;6.788;2023-12-20T09:50:15;21.60;53.20
909;DHT22;441;51.192;6.788;2023-12-20T09:52:43;21.60;53.00
909;DHT22;441;51.192;6.788;2023-12-20T09:55:12;21.60;54.40
909;DHT22;441;51.192;6.788;2023-12-20T09:57:40;21.70;53.50
909;DHT22;441;51.192;6.788;2023-12-20T10:00:08;21.70;53.40
909;DHT22;441;51.192;6.788;2023-12-20T10:02:38;21.70;54.10
909;DHT22;441;51.192;6.788;2023-12-20T10:05:16;21.70;53.30
909;DHT22;441;51.192;6.788;2023-12-20T10:07:44;21.70;53.70
909;DHT22;441;51.192;6.788;2023-12-20T10:10:13;21.70;53.40
909;DHT22;441;51.192;6.788;2023-12-20T10:12:40;21.70;52.60
909;DHT22;441;51.192;6.788;2023-12-20T10:15:08;21.70;52.60
909;DHT22;441;51.192;6.788;2023-12-20T10:17:36;21.80;52.80
909;DHT22;441;51.192;6.788;2023-12-20T10:20:04;21.80;53.10
909;DHT22;441;51.192;6.788;2023-12-20T10:22:37;21.80;52.80
909;DHT22;441;51.192;6.788;2023-12-20T10:25:05;21.80;52.60
909;DHT22;441;51.192;6.788;2023-12-20T10:27:32;21.80;52.70
909;DHT22;441;51.192;6.788;2023-12-20T10:29:59;21.80;52.90
909;DHT22;441;51.192;6.788;2023-12-20T10:32:27;21.80;52.80
909;DHT22;441;51.192;6.788;2023-12-20T10:34:55;21.80;52.60
909;DHT22;441;51.192;6.788;2023-12-20T10:37:22;21.90;52.40
909;DHT22;441;51.192;6.788;2023-12-20T10:39:52;21.90;52.30
909;DHT22;441;51.192;6.788;2023-12-20T10:42:22;21.90;52.10
909;DHT22;441;51.192;6.788;2023-12-20T10:44:55;21.90;52.80
909;DHT22;441;51.192;6.788;2023-12-20T10:47:22;21.90;52.40
909;DHT22;441;51.192;6.788;2023-12-20T10:49:52;21.90;52.20
909;DHT22;441;51.192;6.788;2023-12-20T10:52:19;22.00;52.40
909;DHT22;441;51.192;6.788;2023-12-20T10:54:51;22.00;52.30
909;DHT22;441;51.192;6.788;2023-12-20T10:57:18;22.00;52.20
909;DHT22;441;51.192;6.788;2023-12-20T10:59:45;22.00;52.00
909;DHT22;441;51.192;6.788;2023-12-20T11:02:15;22.00;51.90
909;DHT22;441;51.192;6.788;2023-12-20T11:04:47;22.00;51.80
909;DHT22;441;51.192;6.788;2023-12-20T11:07:21;22.00;52.00
909;DHT22;441;51.192;6.788;2023-12-20T11:09:57;22.10;53.10
909;DHT22;441;51.192;6.788;2023-12-20T11:12:35;22.00;52.40
909;DHT22;441;51.192;6.788;2023-12-20T11:15:04;22.10;52.40
909;DHT22;441;51.192;6.788;2023-12-20T11:17:32;22.10;52.30
909;DHT22;441;51.192;6.788;2023-12-20T11:20:09;22.10;52.20
909;DHT22;441;51.192;6.788;2023-12-20T11:22:51;22.10;52.20
909;DHT22;441;51.192;6.788;2023-12-20T11:25:20;22.10;52.10
909;DHT22;441;51.192;6.788;2023-12-20T11:28:07;22.10;51.90
909;DHT22;441;51.192;6.788;2023-12-20T11:30:41;22.10;51.90
909;DHT22;441;51.192;6.788;2023-12-20T11:33:08;22.10;51.80
909;DHT22;441;51.192;6.788;2023-12-20T11:35:35;22.10;51.90
909;DHT22;441;51.192;6.788;2023-12-20T11:38:03;22.10;51.60
909;DHT22;441;51.192;6.788;2023-12-20T11:40:33;22.20;51.00
909;DHT22;441;51.192;6.788;2023-12-20T11:43:02;22.20;51.40
909;DHT22;441;51.192;6.788;2023-12-20T11:45:29;22.20;51.50
909;DHT22;441;51.192;6.788;2023-12-20T11:47:56;22.20;51.40
909;DHT22;441;51.192;6.788;2023-12-20T11:50:24;22.20;51.20
909;DHT22;441;51.192;6.788;2023-12-20T11:52:52;22.30;51.00
909;DHT22;441;51.192;6.788;2023-12-20T11:55:19;22.30;50.90
909;DHT22;441;51.192;6.788;2023-12-20T11:57:48;22.30;51.40
909;DHT22;441;51.192;6.788;2023-12-20T12:00:15;22.30;51.20
909;DHT22;441;51.192;6.788;2023-12-20T12:02:43;22.30;51.10
909;DHT22;441;51.192;6.788;2023-12-20T12:05:10;22.30;51.00
909;DHT22;441;51.192;6.788;2023-12-20T12:07:36;22.30;51.00
909;DHT22;441;51.192;6.788;2023-12-20T12:10:04;22.30;51.10
909;DHT22;441;51.192;6.788;2023-12-20T12:12:31;22.30;52.10
909;DHT22;441;51.192;6.788;2023-12-20T12:15:00;22.30;51.00
909;DHT22;441;51.192;6.788;2023-12-20T12:17:28;22.30;51.00
909;DHT22;441;51.192;6.788;2023-12-20T12:20:02;22.30;51.10
909;DHT22;441;51.192;6.788;2023-12-20T12:22:30;22.30;50.90
909;DHT22;441;51.192;6.788;2023-12-20T12:27:23;22.40;51.30
909;DHT22;441;51.192;6.788;2023-12-20T12:30:02;22.30;51.00
909;DHT22;441;51.192;6.788;2023-12-20T12:32:29;22.40;50.90
909;DHT22;441;51.192;6.788;2023-12-20T12:34:57;22.30;50.90
909;DHT22;441;51.192;6.788;2023-12-20T12:37:24;22.40;51.20
909;DHT22;441;51.192;6.788;2023-12-20T12:39:53;22.40;51.00
909;DHT22;441;51.192;6.788;2023-12-20T12:42:20;22.40;51.40
909;DHT22;441;51.192;6.788;2023-12-20T12:44:51;22.40;51.50
909;DHT22;441;51.192;6.788;2023-12-20T12:47:19;22.50;52.10
909;DHT22;441;51.192;6.788;2023-12-20T12:49:46;22.50;51.30
909;DHT22;441;51.192;6.788;2023-12-20T12:52:13;22.50;54.00
909;DHT22;441;51.192;6.788;2023-12-20T12:54:40;22.50;55.10
909;DHT22;441;51.192;6.788;2023-12-20T12:57:08;22.50;55.20
909;DHT22;441;51.192;6.788;2023-12-20T12:59:35;22.50;54.50
909;DHT22;441;51.192;6.788;2023-12-20T13:02:01;22.50;53.60
909;DHT22;441;51.192;6.788;2023-12-20T13:04:30;22.50;53.90
909;DHT22;441;51.192;6.788;2023-12-20T13:06:57;22.50;54.00
909;DHT22;441;51.192;6.788;2023-12-20T13:09:24;22.50;54.10
909;DHT22;441;51.192;6.788;2023-12-20T13:11:51;22.50;54.40
909;DHT22;441;51.192;6.788;2023-12-20T13:14:18;22.60;54.60
909;DHT22;441;51.192;6.788;2023-12-20T13:16:45;22.60;54.30
909;DHT22;441;51.192;6.788;2023-12-20T13:19:12;22.60;54.00
909;DHT22;441;51.192;6.788;2023-12-20T13:21:40;22.60;53.80
909;DHT22;441;51.192;6.788;2023-12-20T13:24:07;22.60;53.50
909;DHT22;441;51.192;6.788;2023-12-20T13:26:34;22.70;53.40
909;DHT22;441;51.192;6.788;2023-12-20T13:29:01;22.70;53.20
909;DHT22;441;51.192;6.788;2023-12-20T13:31:28;22.70;53.00
909;DHT22;441;51.192;6.788;2023-12-20T13:33:55;22.70;52.90
909;DHT22;441;51.192;6.788;2023-12-20T13:36:22;22.70;52.80
909;DHT22;441;51.192;6.788;2023-12-20T13:38:51;22.70;52.80
909;DHT22;441;51.192;6.788;2023-12-20T13:41:18;22.70;52.60
909;DHT22;441;51.192;6.788;2023-12-20T13:43:45;22.70;52.50
909;DHT22;441;51.192;6.788;2023-12-20T13:46:12;22.70;52.30
909;DHT22;441;51.192;6.788;2023-12-20T13:48:39;22.80;52.30
909;DHT22;441;51.192;6.788;2023-12-20T13:51:07;22.70;52.00
909;DHT22;441;51.192;6.788;2023-12-20T13:53:34;22.70;51.90
909;DHT22;441;51.192;6.788;2023-12-20T13:56:02;22.80;51.90
909;DHT22;441;51.192;6.788;2023-12-20T13:58:29;22.70;51.80
909;DHT22;441;51.192;6.788;2023-12-20T14:00:56;22.70;51.70
909;DHT22;441;51.192;6.788;2023-12-20T14:03:23;22.70;51.60
909;DHT22;441;51.192;6.788;2023-12-20T14:05:50;22.70;51.60
909;DHT22;441;51.192;6.788;2023-12-20T14:08:17;22.70;51.40
909;DHT22;441;51.192;6.788;2023-12-20T14:10:44;22.70;50.90
909;DHT22;441;51.192;6.788;2023-12-20T14:13:12;22.70;50.80
909;DHT22;441;51.192;6.788;2023-12-20T14:15:39;22.60;50.80
909;DHT22;441;51.192;6.788;2023-12-20T14:18:06;22.60;50.70
909;DHT22;441;51.192;6.788;2023-12-20T14:20:34;22.60;50.60
909;DHT22;441;51.192;6.788;2023-12-20T14:23:01;22.60;50.80
909;DHT22;441;51.192;6.788;2023-12-20T14:25:28;22.60;50.90
909;DHT22;441;51.192;6.788;2023-12-20T14:27:56;22.50;50.80
909;DHT22;441;51.192;6.788;2023-12-20T14:30:25;22.50;50.60
909;DHT22;441;51.192;6.788;2023-12-20T14:32:52;22.40;50.70
909;DHT22;441;51.192;6.788;2023-12-20T14:35:19;22.40;50.60
909;DHT22;441;51.192;6.788;2023-12-20T14:37:46;22.40;50.80
909;DHT22;441;51.192;6.788;2023-12-20T14:40:13;22.40;50.80
909;DHT22;441;51.192;6.788;2023-12-20T14:42:42;22.40;50.50
909;DHT22;441;51.192;6.788;2023-12-20T14:45:09;22.30;50.50
909;DHT22;441;51.192;6.788;2023-12-20T14:47:37;22.30;50.60
909;DHT22;441;51.192;6.788;2023-12-20T14:50:05;22.30;50.60
909;DHT22;441;51.192;6.788;2023-12-20T14:52:33;22.30;50.40
909;DHT22;441;51.192;6.788;2023-12-20T14:55:00;22.30;50.40
909;DHT22;441;51.192;6.788;2023-12-20T14:57:28;22.30;50.50
909;DHT22;441;51.192;6.788;2023-12-20T14:59:55;22.30;50.50
909;DHT22;441;51.192;6.788;2023-12-20T15:02:22;22.20;50.20
909;DHT22;441;51.192;6.788;2023-12-20T15:04:51;22.20;50.40
909;DHT22;441;51.192;6.788;2023-12-20T15:07:18;22.20;50.20
909;DHT22;441;51.192;6.788;2023-12-20T15:09:45;22.20;50.00
909;DHT22;441;51.192;6.788;2023-12-20T15:12:13;22.20;50.00
909;DHT22;441;51.192;6.788;2023-12-20T15:14:40;22.20;50.00
909;DHT22;441;51.192;6.788;2023-12-20T15:17:07;22.20;50.30
909;DHT22;441;51.192;6.788;2023-12-20T15:19:34;22.20;50.10
909;DHT22;441;51.192;6.788;2023-12-20T15:22:03;22.20;50.10
909;DHT22;441;51.192;6.788;2023-12-20T15:24:30;22.20;50.10
909;DHT22;441;51.192;6.788;2023-12-20T15:27:04;22.20;50.30
909;DHT22;441;51.192;6.788;2023-12-20T15:29:31;22.20;50.40
909;DHT22;441;51.192;6.788;2023-12-20T15:31:58;22.20;50.50
909;DHT22;441;51.192;6.788;2023-12-20T15:34:25;22.20;50.70
909;DHT22;441;51.192;6.788;2023-12-20T15:36:52;22.20;50.90
909;DHT22;441;51.192;6.788;2023-12-20T15:39:20;22.20;50.90
909;DHT22;441;51.192;6.788;2023-12-20T15:41:47;22.20;51.00
909;DHT22;441;51.192;6.788;2023-12-20T15:44:14;22.20;50.90
909;DHT22;441;51.192;6.788;2023-12-20T15:46:42;22.20;50.60
909;DHT22;441;51.192;6.788;2023-12-20T15:49:09;22.20;50.10
909;DHT22;441;51.192;6.788;2023-12-20T15:51:36;22.20;50.10
909;DHT22;441;51.192;6.788;2023-12-20T15:54:04;22.20;50.40
909;DHT22;441;51.192;6.788;2023-12-20T15:56:33;22.20;50.10
909;DHT22;441;51.192;6.788;2023-12-20T15:59:00;22.20;50.20
909;DHT22;441;51.192;6.788;2023-12-20T16:01:29;22.20;50.30
909;DHT22;441;51.192;6.788;2023-12-20T16:03:56;22.20;50.40
909;DHT22;441;51.192;6.788;2023-12-20T16:06:23;22.20;50.80
909;DHT22;441;51.192;6.788;2023-12-20T16:08:50;22.20;50.50
909;DHT22;441;51.192;6.788;2023-12-20T16:11:17;22.30;51.00
909;DHT22;441;51.192;6.788;2023-12-20T16:13:45;22.40;51.20
909;DHT22;441;51.192;6.788;2023-12-20T16:16:12;22.40;51.10
909;DHT22;441;51.192;6.788;2023-12-20T16:18:39;22.50;51.10
909;DHT22;441;51.192;6.788;2023-12-20T16:21:06;22.50;51.00
909;DHT22;441;51.192;6.788;2023-12-20T16:23:33;22.50;51.00
909;DHT22;441;51.192;6.788;2023-12-20T16:26:00;22.50;50.90
909;DHT22;441;51.192;6.788;2023-12-20T16:28:26;22.50;50.80
909;DHT22;441;51.192;6.788;2023-12-20T16:30:55;22.60;50.90
909;DHT22;441;51.192;6.788;2023-12-20T16:33:22;22.50;50.60
909;DHT22;441;51.192;6.788;2023-12-20T16:35:49;22.50;50.60
909;DHT22;441;51.192;6.788;2023-12-20T16:38:16;22.60;50.60